Time;durP1;ratioP1;P1;durP2;ratioP2;P2;SDS_P1;SDS_P2;PMS_P1;PMS_P2;Temp;Humidity;BMP_temperature;BMP_pressure;BME280_temperature;BME280_humidity;BME280_pressure;Samples;Min_cycle;Max_cycle;Signal;HPM_P1;HPM_P2
2022/12/21 00:00:08;;;;;;;2.08;1.90;;;;;;;;;;5067982;28;20191;-86
2022/12/21 00:02:36;;;;;;;2.60;2.30;;;;;;;;;;5067963;28;20207;-87
2022/12/21 00:05:03;;;;;;;2.20;2.00;;;;;;;;;;5061319;28;20209;-87
2022/12/21 00:07:32;;;;;;;1.80;1.70;;;;;;;;;;5065316;28;20194;-87
2022/12/21 00:10:00;;;;;;;1.80;1.70;;;;;;;;;;5062765;28;20198;-86
2022/12/21 00:12:27;;;;;;;1.70;1.60;;;;;;;;;;5065115;28;20223;-86
2022/12/21 00:14:54;;;;;;;2.65;1.88;;;;;;;;;;5064557;28;20226;-86
2022/12/21 00:17:22;;;;;;;2.63;1.50;;;;;;;;;;5066661;28;20202;-87
2022/12/21 00:19:49;;;;;;;1.80;1.70;;;;;;;;;;5072438;28;20297;-87
2022/12/21 00:22:17;;;;;;;1.80;1.70;;;;;;;;;;5073398;28;20223;-86
2022/12/21 00:24:46;;;;;;;2.00;1.90;;;;;;;;;;5072396;28;20202;-86
2022/12/21 00:27:13;;;;;;;1.80;1.70;;;;;;;;;;5071881;28;20209;-87
2022/12/21 00:29:40;;;;;;;1.50;1.40;;;;;;;;;;5064339;28;20310;-87
2022/12/21 00:32:07;;;;;;;1.50;1.40;;;;;;;;;;5064724;28;20300;-87
2022/12/21 00:34:35;;;;;;;1.30;1.30;;;;;;;;;;5063068;28;20198;-87
2022/12/21 00:37:03;;;;;;;1.25;1.25;;;;;;;;;;5073617;28;20201;-87
2022/12/21 00:39:30;;;;;;;1.35;1.20;;;;;;;;;;5066886;28;20248;-87
2022/12/21 00:41:59;;;;;;;1.30;1.20;;;;;;;;;;5064860;28;20199;-87
2022/12/21 00:44:26;;;;;;;1.43;1.33;;;;;;;;;;5064914;28;20278;-86
2022/12/21 00:46:54;;;;;;;1.17;1.17;;;;;;;;;;5072466;28;20201;-87
2022/12/21 00:49:21;;;;;;;1.17;1.13;;;;;;;;;;5072661;28;20194;-87
2022/12/21 00:51:48;;;;;;;1.07;1.07;;;;;;;;;;5068358;28;20273;-87
2022/12/21 00:54:15;;;;;;;1.10;1.10;;;;;;;;;;5060725;28;20192;-86
2022/12/21 00:56:43;;;;;;;1.20;1.20;;;;;;;;;;5064574;28;20191;-87
2022/12/21 00:59:12;;;;;;;1.17;1.02;;;;;;;;;;5067727;28;20205;-87
2022/12/21 01:01:39;;;;;;;1.20;1.20;;;;;;;;;;5068002;28;20191;-87
2022/12/21 01:04:06;;;;;;;1.00;1.00;;;;;;;;;;5068934;28;20206;-87
2022/12/21 01:06:35;;;;;;;0.90;0.90;;;;;;;;;;5063918;28;20199;-87
2022/12/21 01:09:02;;;;;;;1.23;1.13;;;;;;;;;;5061156;28;20203;-87
2022/12/21 01:11:30;;;;;;;0.80;0.80;;;;;;;;;;5065975;28;20205;-87
2022/12/21 01:13:57;;;;;;;0.80;0.80;;;;;;;;;;5070605;28;20225;-86
2022/12/21 01:16:27;;;;;;;0.95;0.88;;;;;;;;;;5066662;28;20194;-86
2022/12/21 01:18:55;;;;;;;0.77;0.77;;;;;;;;;;5072604;28;20213;-87
2022/12/21 01:21:24;;;;;;;0.80;0.80;;;;;;;;;;5071552;28;20205;-87
2022/12/21 01:23:51;;;;;;;0.90;0.90;;;;;;;;;;5067922;28;20202;-87
2022/12/21 01:26:19;;;;;;;0.85;0.85;;;;;;;;;;5073326;28;20191;-87
2022/12/21 01:28:47;;;;;;;1.25;0.80;;;;;;;;;;5072443;28;20226;-87
2022/12/21 01:31:14;;;;;;;0.90;0.90;;;;;;;;;;5073304;28;20202;-86
2022/12/21 01:33:43;;;;;;;1.00;1.00;;;;;;;;;;5054047;28;20222;-86
2022/12/21 01:36:17;;;;;;;1.10;1.10;;;;;;;;;;5072937;28;20207;-87
2022/12/21 01:38:45;;;;;;;1.40;1.00;;;;;;;;;;5065331;28;20202;-86
2022/12/21 01:41:14;;;;;;;1.30;1.30;;;;;;;;;;5073993;28;20187;-86
2022/12/21 01:43:43;;;;;;;1.50;1.40;;;;;;;;;;5069149;28;20206;-86
2022/12/21 01:46:13;;;;;;;1.57;1.47;;;;;;;;;;5073302;28;20202;-87
2022/12/21 01:48:45;;;;;;;1.20;1.20;;;;;;;;;;5069520;28;20294;-87
2022/12/21 01:51:13;;;;;;;1.42;1.42;;;;;;;;;;5067892;28;20210;-86
2022/12/21 01:53:43;;;;;;;1.60;1.50;;;;;;;;;;5064218;28;20229;-87
2022/12/21 01:56:12;;;;;;;1.67;1.58;;;;;;;;;;5063955;28;20218;-86
2022/12/21 01:58:41;;;;;;;1.55;1.50;;;;;;;;;;5066125;28;20195;-87
2022/12/21 02:01:08;;;;;;;1.90;1.80;;;;;;;;;;5067336;28;20188;-86
2022/12/21 02:03:36;;;;;;;1.80;1.70;;;;;;;;;;5064374;28;20209;-87
2022/12/21 02:06:08;;;;;;;1.83;1.73;;;;;;;;;;5069658;28;20195;-86
2022/12/21 02:08:36;;;;;;;1.58;1.50;;;;;;;;;;5068580;28;20214;-87
2022/12/21 02:11:04;;;;;;;2.10;1.98;;;;;;;;;;5062401;28;20209;-86
2022/12/21 02:13:32;;;;;;;2.30;2.20;;;;;;;;;;5068420;28;20222;-86
2022/12/21 02:16:14;;;;;;;1.90;1.80;;;;;;;;;;5063432;28;20211;-87
2022/12/21 02:18:52;;;;;;;2.10;2.00;;;;;;;;;;5066292;28;20205;-86
2022/12/21 02:21:24;;;;;;;2.00;1.90;;;;;;;;;;5071927;28;20207;-86
2022/12/21 02:24:07;;;;;;;2.17;2.07;;;;;;;;;;5073382;28;20195;-86
2022/12/21 02:26:46;;;;;;;2.10;2.00;;;;;;;;;;5062618;28;20200;-86
2022/12/21 02:29:28;;;;;;;1.80;1.70;;;;;;;;;;5067750;28;20233;-86
2022/12/21 02:31:59;;;;;;;2.27;1.60;;;;;;;;;;5064989;28;20199;-87
2022/12/21 02:34:30;;;;;;;1.57;1.47;;;;;;;;;;5067418;28;20218;-87
2022/12/21 02:37:02;;;;;;;1.60;1.50;;;;;;;;;;5073039;28;20282;-86
2022/12/21 02:39:32;;;;;;;1.50;1.40;;;;;;;;;;5062923;28;20195;-87
2022/12/21 02:42:02;;;;;;;1.20;1.20;;;;;;;;;;5066354;28;20201;-86
2022/12/21 02:44:42;;;;;;;1.50;1.40;;;;;;;;;;5071734;28;20187;-86
2022/12/21 02:47:13;;;;;;;1.43;1.33;;;;;;;;;;5062923;28;20195;-87
2022/12/21 02:49:43;;;;;;;1.17;1.17;;;;;;;;;;5064962;28;20211;-87
2022/12/21 02:52:14;;;;;;;1.30;1.30;;;;;;;;;;5065233;28;20200;-87
2022/12/21 02:54:43;;;;;;;1.23;1.13;;;;;;;;;;5070131;28;20217;-86
2022/12/21 02:57:11;;;;;;;1.80;1.37;;;;;;;;;;5063642;28;20195;-87
2022/12/21 02:59:41;;;;;;;1.20;1.20;;;;;;;;;;5069143;28;20202;-87
2022/12/21 03:02:20;;;;;;;1.13;1.13;;;;;;;;;;5069719;28;20268;-86
2022/12/21 03:04:56;;;;;;;1.52;1.42;;;;;;;;;;5067069;28;20203;-87
2022/12/21 03:07:38;;;;;;;1.50;1.40;;;;;;;;;;5067314;28;20201;-87
2022/12/21 03:10:09;;;;;;;1.75;1.65;;;;;;;;;;5065878;28;20190;-87
2022/12/21 03:12:41;;;;;;;1.50;1.40;;;;;;;;;;5068567;28;20195;-87
2022/12/21 03:15:18;;;;;;;2.07;1.97;;;;;;;;;;5068576;28;20198;-87
2022/12/21 03:17:50;;;;;;;2.17;1.50;;;;;;;;;;5075511;28;20278;-86
2022/12/21 03:20:23;;;;;;;2.07;1.67;;;;;;;;;;5076049;28;20210;-87
2022/12/21 03:22:53;;;;;;;1.77;1.67;;;;;;;;;;5073631;28;20198;-86
2022/12/21 03:25:23;;;;;;;2.43;1.90;;;;;;;;;;5074145;28;20205;-87
2022/12/21 03:27:52;;;;;;;1.85;1.60;;;;;;;;;;5072927;28;20190;-87
2022/12/21 03:30:21;;;;;;;1.83;1.73;;;;;;;;;;5074431;28;20222;-87
2022/12/21 03:32:52;;;;;;;2.17;1.98;;;;;;;;;;5066419;28;20225;-87
2022/12/21 03:35:22;;;;;;;1.58;1.48;;;;;;;;;;5070054;28;20262;-87
2022/12/21 03:37:51;;;;;;;1.90;1.80;;;;;;;;;;5068240;28;20203;-87
2022/12/21 03:40:21;;;;;;;3.35;2.08;;;;;;;;;;5064554;28;20195;-87
2022/12/21 03:42:49;;;;;;;2.17;2.03;;;;;;;;;;5068809;28;20210;-87
2022/12/21 03:45:19;;;;;;;1.90;1.80;;;;;;;;;;5069230;28;20199;-87
2022/12/21 03:47:49;;;;;;;2.40;2.20;;;;;;;;;;5069716;28;20213;-86
2022/12/21 03:50:19;;;;;;;2.25;2.05;;;;;;;;;;5070687;28;20195;-87
2022/12/21 03:52:49;;;;;;;2.63;2.43;;;;;;;;;;5060302;28;20210;-86
2022/12/21 03:55:18;;;;;;;2.37;2.20;;;;;;;;;;5071763;28;20209;-87
2022/12/21 03:57:45;;;;;;;1.73;1.60;;;;;;;;;;5064719;28;20191;-87
2022/12/21 04:00:13;;;;;;;1.90;1.80;;;;;;;;;;5067616;28;20220;-87
2022/12/21 04:02:42;;;;;;;1.73;1.63;;;;;;;;;;5065034;28;20218;-87
2022/12/21 04:05:12;;;;;;;2.13;1.93;;;;;;;;;;5072453;28;20194;-87
2022/12/21 04:07:41;;;;;;;1.48;1.38;;;;;;;;;;5065643;28;20201;-87
2022/12/21 04:10:15;;;;;;;1.05;1.00;;;;;;;;;;5067927;28;20285;-87
2022/12/21 04:12:41;;;;;;;1.00;1.00;;;;;;;;;;5066142;28;20201;-88
2022/12/21 04:15:11;;;;;;;0.80;0.80;;;;;;;;;;5070887;28;20261;-86
2022/12/21 04:17:39;;;;;;;0.60;0.60;;;;;;;;;;5069547;28;20187;-86
2022/12/21 04:20:07;;;;;;;0.70;0.70;;;;;;;;;;5073886;28;20274;-87
2022/12/21 04:28:10;;;;;;;0.90;0.90;;;;;;;;;;5074985;28;20185;-86
2022/12/21 04:30:38;;;;;;;1.00;1.00;;;;;;;;;;5071820;28;20209;-87
2022/12/21 04:33:06;;;;;;;1.57;1.47;;;;;;;;;;5071839;28;20301;-87
2022/12/21 04:35:34;;;;;;;1.53;1.43;;;;;;;;;;5073876;28;20210;-87
2022/12/21 04:38:00;;;;;;;1.95;1.85;;;;;;;;;;5062655;28;20210;-87
2022/12/21 04:40:28;;;;;;;2.60;2.40;;;;;;;;;;5066292;28;20205;-87
2022/12/21 04:42:56;;;;;;;2.10;2.00;;;;;;;;;;5069344;28;20235;-86
2022/12/21 04:45:23;;;;;;;2.83;2.63;;;;;;;;;;5071771;28;20206;-87
2022/12/21 04:47:53;;;;;;;3.27;3.00;;;;;;;;;;5073773;28;20202;-87
2022/12/21 04:50:21;;;;;;;2.75;2.55;;;;;;;;;;5064400;28;20218;-87
2022/12/21 04:52:48;;;;;;;2.60;2.40;;;;;;;;;;5065966;28;20231;-87
2022/12/21 04:55:15;;;;;;;2.95;2.75;;;;;;;;;;5074359;28;20198;-87
2022/12/21 04:57:44;;;;;;;2.90;2.50;;;;;;;;;;5068371;28;20199;-87
2022/12/21 05:00:12;;;;;;;3.28;2.97;;;;;;;;;;5065851;28;20202;-87
2022/12/21 05:02:39;;;;;;;3.20;2.90;;;;;;;;;;5064950;28;20222;-87
2022/12/21 05:05:07;;;;;;;3.97;2.90;;;;;;;;;;5064110;28;20194;-87
2022/12/21 05:07:35;;;;;;;3.53;3.23;;;;;;;;;;5069642;28;20360;-87
2022/12/21 05:10:02;;;;;;;3.42;3.13;;;;;;;;;;5063950;28;20195;-87
2022/12/21 05:12:29;;;;;;;3.07;2.87;;;;;;;;;;5069604;28;20187;-86
2022/12/21 05:14:58;;;;;;;3.20;2.93;;;;;;;;;;5065973;28;20226;-87
2022/12/21 05:17:25;;;;;;;3.10;2.90;;;;;;;;;;5069618;28;20205;-86
2022/12/21 05:19:53;;;;;;;2.60;2.40;;;;;;;;;;5072138;28;20201;-87
2022/12/21 05:22:20;;;;;;;3.07;2.87;;;;;;;;;;5071014;28;20225;-86
2022/12/21 05:24:48;;;;;;;3.03;2.83;;;;;;;;;;5068007;28;20215;-87
2022/12/21 05:27:15;;;;;;;3.53;3.13;;;;;;;;;;5064126;28;20199;-87
2022/12/21 05:29:42;;;;;;;3.33;3.07;;;;;;;;;;5065020;28;20228;-87
2022/12/21 05:32:11;;;;;;;5.32;3.20;;;;;;;;;;5064599;28;20268;-87
2022/12/21 05:34:39;;;;;;;2.88;2.67;;;;;;;;;;5064355;28;20215;-87
2022/12/21 05:37:07;;;;;;;3.40;3.10;;;;;;;;;;5070728;28;20198;-87
2022/12/21 05:39:35;;;;;;;3.17;2.97;;;;;;;;;;5065532;28;20266;-87
2022/12/21 05:42:02;;;;;;;3.10;2.80;;;;;;;;;;5063284;28;20194;-88
2022/12/21 05:44:30;;;;;;;4.03;3.72;;;;;;;;;;5063528;28;20207;-87
2022/12/21 05:46:57;;;;;;;4.00;3.60;;;;;;;;;;5065811;28;20309;-87
2022/12/21 05:49:26;;;;;;;3.50;2.97;;;;;;;;;;5062187;28;20194;-87
2022/12/21 05:51:53;;;;;;;3.20;2.90;;;;;;;;;;5071262;28;20419;-86
2022/12/21 05:54:20;;;;;;;3.53;3.22;;;;;;;;;;5071954;28;20250;-85
2022/12/21 05:56:48;;;;;;;3.42;3.15;;;;;;;;;;5063388;28;20202;-85
2022/12/21 05:59:16;;;;;;;4.35;4.05;;;;;;;;;;5070146;28;20203;-85
2022/12/21 06:01:43;;;;;;;4.20;3.90;;;;;;;;;;5062683;28;20230;-85
2022/12/21 06:04:11;;;;;;;3.70;3.40;;;;;;;;;;5073941;28;20277;-86
2022/12/21 06:06:40;;;;;;;4.20;3.80;;;;;;;;;;5072063;28;20199;-85
2022/12/21 06:09:07;;;;;;;5.07;4.68;;;;;;;;;;5063036;28;20198;-86
2022/12/21 06:11:35;;;;;;;4.10;3.80;;;;;;;;;;5061080;28;20202;-86
2022/12/21 06:14:02;;;;;;;3.90;3.60;;;;;;;;;;5065779;28;20218;-86
2022/12/21 06:16:30;;;;;;;4.20;3.87;;;;;;;;;;5073771;28;20282;-85
2022/12/21 06:18:57;;;;;;;3.63;3.33;;;;;;;;;;5072178;28;20183;-86
2022/12/21 06:21:25;;;;;;;3.60;3.30;;;;;;;;;;5078784;28;20205;-88
2022/12/21 06:23:55;;;;;;;4.40;3.20;;;;;;;;;;5077486;28;20263;-89
2022/12/21 06:26:22;;;;;;;3.00;2.80;;;;;;;;;;5073328;28;20198;-87
2022/12/21 06:28:50;;;;;;;3.58;3.25;;;;;;;;;;5067445;28;20243;-87
2022/12/21 06:31:18;;;;;;;3.13;2.77;;;;;;;;;;5070183;28;20210;-86
2022/12/21 06:33:45;;;;;;;3.07;2.83;;;;;;;;;;5075282;28;20242;-86
2022/12/21 06:36:13;;;;;;;2.60;2.40;;;;;;;;;;5072843;28;20191;-87
2022/12/21 06:38:40;;;;;;;2.30;2.20;;;;;;;;;;5077164;28;20218;-88
2022/12/21 06:41:10;;;;;;;1.95;1.85;;;;;;;;;;5076843;28;20286;-87
2022/12/21 06:43:38;;;;;;;1.90;1.80;;;;;;;;;;5076611;28;20213;-87
2022/12/21 06:46:07;;;;;;;1.83;1.73;;;;;;;;;;5076996;28;20194;-87
2022/12/21 06:48:35;;;;;;;1.70;1.60;;;;;;;;;;5076087;28;20230;-87
2022/12/21 06:51:03;;;;;;;1.85;1.75;;;;;;;;;;5075675;28;20203;-87
2022/12/21 06:53:31;;;;;;;1.60;1.50;;;;;;;;;;5071975;28;20217;-86
2022/12/21 06:55:59;;;;;;;1.93;1.83;;;;;;;;;;5074508;28;20287;-88
2022/12/21 06:58:28;;;;;;;1.57;1.47;;;;;;;;;;5072736;28;20195;-88
2022/12/21 07:00:56;;;;;;;1.63;1.53;;;;;;;;;;5060525;28;20266;-88
2022/12/21 07:03:23;;;;;;;1.73;1.63;;;;;;;;;;5071211;28;20222;-89
2022/12/21 07:05:50;;;;;;;2.03;1.93;;;;;;;;;;5070979;28;20208;-88
2022/12/21 07:08:17;;;;;;;2.20;2.10;;;;;;;;;;5072697;28;20195;-88
2022/12/21 07:10:45;;;;;;;2.50;2.30;;;;;;;;;;5060897;28;20261;-89
2022/12/21 07:13:12;;;;;;;2.07;1.97;;;;;;;;;;5063210;28;20210;-88
2022/12/21 07:15:41;;;;;;;2.07;1.97;;;;;;;;;;5073141;28;20268;-88
2022/12/21 07:18:08;;;;;;;2.23;2.10;;;;;;;;;;5075831;28;20195;-88
2022/12/21 07:20:35;;;;;;;2.00;1.80;;;;;;;;;;5077583;28;20209;-88
2022/12/21 07:23:03;;;;;;;1.73;1.63;;;;;;;;;;5069479;28;20301;-88
2022/12/21 07:25:30;;;;;;;1.70;1.60;;;;;;;;;;5076743;28;20191;-87
2022/12/21 07:27:57;;;;;;;2.00;1.90;;;;;;;;;;5067674;28;20213;-87
2022/12/21 07:30:25;;;;;;;1.70;1.60;;;;;;;;;;5074471;28;20235;-88
2022/12/21 07:32:55;;;;;;;1.90;1.80;;;;;;;;;;5065673;28;20202;-87
2022/12/21 07:35:22;;;;;;;2.10;2.00;;;;;;;;;;5071485;28;20210;-87
2022/12/21 07:37:50;;;;;;;1.90;1.80;;;;;;;;;;5057824;28;20192;-87
2022/12/21 07:40:17;;;;;;;2.03;1.93;;;;;;;;;;5062664;28;20199;-88
2022/12/21 07:42:45;;;;;;;1.70;1.60;;;;;;;;;;5070918;28;20202;-87
2022/12/21 07:45:13;;;;;;;2.60;2.40;;;;;;;;;;5071803;28;20195;-88
2022/12/21 07:47:40;;;;;;;2.30;2.20;;;;;;;;;;5066996;28;20261;-87
2022/12/21 07:50:19;;;;;;;2.30;2.10;;;;;;;;;;5070816;28;20195;-87
2022/12/21 07:52:47;;;;;;;2.57;2.43;;;;;;;;;;5071118;28;20210;-87
2022/12/21 07:55:15;;;;;;;2.60;2.17;;;;;;;;;;5060109;28;20214;-87
2022/12/21 07:57:42;;;;;;;2.40;2.30;;;;;;;;;;5074589;28;20199;-87
2022/12/21 08:00:10;;;;;;;2.27;2.17;;;;;;;;;;5070638;28;20188;-87
2022/12/21 08:02:37;;;;;;;2.50;2.40;;;;;;;;;;5069166;28;20297;-87
2022/12/21 08:05:05;;;;;;;2.70;2.50;;;;;;;;;;5068328;28;20195;-87
2022/12/21 08:07:34;;;;;;;3.15;2.78;;;;;;;;;;5067773;28;20199;-86
2022/12/21 08:10:01;;;;;;;2.90;2.70;;;;;;;;;;5074165;28;20282;-87
2022/12/21 08:12:29;;;;;;;4.83;2.50;;;;;;;;;;5067047;28;20287;-87
2022/12/21 08:14:56;;;;;;;2.67;2.40;;;;;;;;;;5073411;28;20221;-87
2022/12/21 08:17:23;;;;;;;2.73;2.53;;;;;;;;;;5069145;28;20199;-87
2022/12/21 08:19:50;;;;;;;2.83;2.53;;;;;;;;;;5074326;28;20195;-87
2022/12/21 08:22:17;;;;;;;2.90;2.70;;;;;;;;;;5074937;28;20202;-87
2022/12/21 08:24:46;;;;;;;2.03;1.93;;;;;;;;;;5075348;28;20190;-87
2022/12/21 08:27:15;;;;;;;2.77;2.00;;;;;;;;;;5074694;28;20197;-87
2022/12/21 08:29:42;;;;;;;2.10;2.00;;;;;;;;;;5072459;28;20227;-87
2022/12/21 08:32:09;;;;;;;2.17;2.07;;;;;;;;;;5065766;28;20290;-87
2022/12/21 08:34:37;;;;;;;1.90;1.80;;;;;;;;;;5074534;28;20241;-87
2022/12/21 08:37:04;;;;;;;2.10;1.90;;;;;;;;;;5069700;28;20273;-87
2022/12/21 08:39:31;;;;;;;2.30;2.10;;;;;;;;;;5074074;28;20300;-87
2022/12/21 08:42:00;;;;;;;2.40;2.20;;;;;;;;;;5055625;28;20195;-87
2022/12/21 08:44:28;;;;;;;2.60;2.50;;;;;;;;;;5073416;28;20197;-87
2022/12/21 08:46:55;;;;;;;3.27;3.07;;;;;;;;;;5073623;28;20225;-87
2022/12/21 08:49:22;;;;;;;3.00;2.80;;;;;;;;;;5077899;28;20201;-87
2022/12/21 08:51:49;;;;;;;3.03;2.83;;;;;;;;;;5074610;28;20301;-87
2022/12/21 08:54:17;;;;;;;4.53;2.80;;;;;;;;;;5071051;28;20209;-87
2022/12/21 08:56:44;;;;;;;3.00;2.70;;;;;;;;;;5072071;28;20282;-87
2022/12/21 08:59:13;;;;;;;2.53;2.33;;;;;;;;;;5065937;28;20199;-87
2022/12/21 09:01:44;;;;;;;2.50;2.30;;;;;;;;;;5065988;28;20259;-88
2022/12/21 09:04:12;;;;;;;2.10;2.00;;;;;;;;;;5066166;28;20196;-87
2022/12/21 09:06:40;;;;;;;2.67;2.10;;;;;;;;;;5069006;28;20195;-87
2022/12/21 09:09:08;;;;;;;3.77;1.93;;;;;;;;;;5072404;28;20282;-90
2022/12/21 09:11:36;;;;;;;2.00;1.90;;;;;;;;;;5066389;28;20214;-88
2022/12/21 09:14:04;;;;;;;2.00;1.77;;;;;;;;;;5073773;28;20207;-88
2022/12/21 09:16:33;;;;;;;2.00;1.80;;;;;;;;;;5069787;28;20302;-88
2022/12/21 09:19:00;;;;;;;2.00;1.90;;;;;;;;;;5067793;28;20199;-88
2022/12/21 09:21:28;;;;;;;2.65;2.05;;;;;;;;;;5072910;28;20285;-88
2022/12/21 09:23:55;;;;;;;1.83;1.60;;;;;;;;;;5069609;28;20266;-88
2022/12/21 09:26:22;;;;;;;2.10;1.90;;;;;;;;;;5072430;28;20226;-87
2022/12/21 09:28:50;;;;;;;1.90;1.80;;;;;;;;;;5069323;28;20303;-88
2022/12/21 09:31:18;;;;;;;1.83;1.70;;;;;;;;;;5067372;28;20221;-88
2022/12/21 09:33:46;;;;;;;2.57;1.87;;;;;;;;;;5070290;28;20207;-89
2022/12/21 09:36:15;;;;;;;1.83;1.73;;;;;;;;;;5070318;28;20226;-88
2022/12/21 09:38:42;;;;;;;1.83;1.70;;;;;;;;;;5073424;28;20228;-88
2022/12/21 09:41:32;;;;;;;2.28;2.08;;;;;;;;;;5073533;28;20230;-88
2022/12/21 09:44:09;;;;;;;3.23;2.10;;;;;;;;;;5065117;28;20197;-88
2022/12/21 09:46:39;;;;;;;2.03;1.80;;;;;;;;;;5068342;28;20273;-88
2022/12/21 09:49:11;;;;;;;2.00;1.90;;;;;;;;;;5070402;28;20289;-88
2022/12/21 09:51:39;;;;;;;2.33;2.13;;;;;;;;;;5068385;28;20199;-88
2022/12/21 09:54:08;;;;;;;2.17;2.08;;;;;;;;;;5059178;28;20282;-87
2022/12/21 09:56:39;;;;;;;3.27;2.23;;;;;;;;;;5058294;28;20238;-88
2022/12/21 09:59:10;;;;;;;4.47;2.40;;;;;;;;;;5064690;28;20199;-88
2022/12/21 10:01:42;;;;;;;2.53;2.37;;;;;;;;;;5061217;28;20282;-88
2022/12/21 10:04:28;;;;;;;3.30;2.05;;;;;;;;;;5065633;28;20197;-89
2022/12/21 10:07:04;;;;;;;2.73;2.27;;;;;;;;;;5070694;28;20209;-88
2022/12/21 10:09:38;;;;;;;2.63;2.00;;;;;;;;;;5069556;28;20283;-88
2022/12/21 10:12:12;;;;;;;2.30;1.80;;;;;;;;;;5075420;28;20201;-87
2022/12/21 10:14:44;;;;;;;3.90;1.83;;;;;;;;;;5076283;28;20202;-88
2022/12/21 10:17:29;;;;;;;1.83;1.60;;;;;;;;;;5066657;28;20233;-88
2022/12/21 10:20:02;;;;;;;2.17;1.77;;;;;;;;;;5076102;28;20218;-88
2022/12/21 10:22:33;;;;;;;2.63;1.80;;;;;;;;;;5070573;28;20225;-88
2022/12/21 10:25:02;;;;;;;2.55;1.50;;;;;;;;;;5059807;28;20286;-88
2022/12/21 10:27:32;;;;;;;4.20;1.40;;;;;;;;;;5073155;28;20226;-87
2022/12/21 10:30:00;;;;;;;1.40;1.30;;;;;;;;;;5072793;28;20254;-88
2022/12/21 10:32:31;;;;;;;1.73;1.50;;;;;;;;;;5080936;28;20206;-88
2022/12/21 10:35:10;;;;;;;2.92;1.30;;;;;;;;;;5074702;28;20206;-88
2022/12/21 10:37:39;;;;;;;1.33;1.00;;;;;;;;;;5063663;28;20207;-88
2022/12/21 10:40:07;;;;;;;1.98;1.10;;;;;;;;;;5074409;28;20194;-88
2022/12/21 10:42:38;;;;;;;2.20;1.27;;;;;;;;;;5061753;28;20227;-87
2022/12/21 10:45:06;;;;;;;2.50;1.30;;;;;;;;;;5070500;28;20203;-88
2022/12/21 10:47:33;;;;;;;3.00;1.10;;;;;;;;;;5076678;28;20195;-87
2022/12/21 10:50:04;;;;;;;2.37;1.40;;;;;;;;;;5071235;28;20275;-88
2022/12/21 10:52:36;;;;;;;4.73;1.30;;;;;;;;;;5068597;28;20278;-87
2022/12/21 10:55:04;;;;;;;4.93;1.40;;;;;;;;;;5076979;28;20234;-87
2022/12/21 10:57:33;;;;;;;2.00;0.80;;;;;;;;;;5069825;28;20302;-88
2022/12/21 11:00:04;;;;;;;2.27;1.07;;;;;;;;;;5076498;28;20237;-87
2022/12/21 11:02:34;;;;;;;1.10;0.93;;;;;;;;;;5069891;28;20225;-87
2022/12/21 11:05:01;;;;;;;1.50;1.00;;;;;;;;;;5066300;28;20208;-87
2022/12/21 11:07:31;;;;;;;5.13;1.27;;;;;;;;;;5073088;28;20258;-87
2022/12/21 11:10:00;;;;;;;1.80;1.03;;;;;;;;;;5070778;28;20207;-87
2022/12/21 11:12:28;;;;;;;1.70;1.10;;;;;;;;;;5074937;28;20209;-87
2022/12/21 11:14:56;;;;;;;3.83;1.00;;;;;;;;;;5062187;28;20200;-87
2022/12/21 11:17:24;;;;;;;4.30;1.23;;;;;;;;;;5056620;28;20191;-87
2022/12/21 11:19:53;;;;;;;2.23;1.13;;;;;;;;;;5073029;28;20281;-87
2022/12/21 11:22:24;;;;;;;1.17;0.90;;;;;;;;;;5070831;28;20187;-87
2022/12/21 11:24:56;;;;;;;4.10;1.10;;;;;;;;;;5073237;28;20207;-87
2022/12/21 11:27:25;;;;;;;1.37;0.90;;;;;;;;;;5075409;28;20203;-88
2022/12/21 11:29:55;;;;;;;2.70;1.00;;;;;;;;;;5061923;28;20231;-88
2022/12/21 11:32:23;;;;;;;1.70;0.73;;;;;;;;;;5076006;28;20225;-87
2022/12/21 11:34:51;;;;;;;1.87;0.97;;;;;;;;;;5074987;28;20217;-87
2022/12/21 11:37:23;;;;;;;2.45;1.15;;;;;;;;;;5073916;28;20268;-88
2022/12/21 11:39:51;;;;;;;1.48;0.88;;;;;;;;;;5082397;28;20218;-87
2022/12/21 11:42:20;;;;;;;1.70;0.90;;;;;;;;;;5076020;28;20291;-88
2022/12/21 11:44:49;;;;;;;2.20;0.93;;;;;;;;;;5057974;28;20212;-87
2022/12/21 11:47:23;;;;;;;2.30;1.00;;;;;;;;;;5061125;28;20213;-90
2022/12/21 11:50:05;;;;;;;6.10;1.20;;;;;;;;;;5077915;28;20197;-89
2022/12/21 11:52:39;;;;;;;3.40;1.27;;;;;;;;;;5066058;28;20255;-90
2022/12/21 11:55:10;;;;;;;3.17;1.10;;;;;;;;;;5073150;28;20195;-85
2022/12/21 11:57:46;;;;;;;3.00;1.20;;;;;;;;;;5065267;28;20198;-87
2022/12/21 12:00:16;;;;;;;3.55;1.15;;;;;;;;;;5070444;28;20202;-87
2022/12/21 12:02:52;;;;;;;3.35;1.52;;;;;;;;;;5063693;28;20197;-88
2022/12/21 12:05:27;;;;;;;2.50;1.10;;;;;;;;;;5073132;28;20209;-87
2022/12/21 12:07:55;;;;;;;2.47;1.23;;;;;;;;;;5064284;28;20207;-87
2022/12/21 12:10:46;;;;;;;3.33;1.20;;;;;;;;;;5064201;28;20191;-89
2022/12/21 12:13:20;;;;;;;2.83;1.27;;;;;;;;;;5047691;28;20211;-89
2022/12/21 12:15:50;;;;;;;1.75;1.08;;;;;;;;;;5067523;28;20223;-88
2022/12/21 12:18:28;;;;;;;2.93;1.10;;;;;;;;;;5067932;28;20205;-88
2022/12/21 12:21:03;;;;;;;3.00;1.10;;;;;;;;;;5064203;28;20275;-88
2022/12/21 12:23:36;;;;;;;2.67;0.90;;;;;;;;;;5058729;28;20282;-88
2022/12/21 12:26:10;;;;;;;3.60;1.10;;;;;;;;;;5069694;28;20262;-88
2022/12/21 12:28:48;;;;;;;3.47;0.97;;;;;;;;;;5067068;28;20221;-87
2022/12/21 12:31:25;;;;;;;2.50;1.00;;;;;;;;;;5065849;28;20195;-90
2022/12/21 12:34:01;;;;;;;2.38;1.08;;;;;;;;;;5073765;28;20198;-91
2022/12/21 12:36:31;;;;;;;2.57;1.10;;;;;;;;;;5060272;28;20226;-88
2022/12/21 12:39:03;;;;;;;2.37;1.00;;;;;;;;;;5066331;28;20285;-89
2022/12/21 12:41:37;;;;;;;3.73;1.10;;;;;;;;;;5064703;28;20190;-89
2022/12/21 12:44:09;;;;;;;3.63;1.13;;;;;;;;;;5066267;28;20201;-92
2022/12/21 12:46:45;;;;;;;2.53;1.07;;;;;;;;;;5071342;28;20218;-91
2022/12/21 12:49:18;;;;;;;1.20;1.13;;;;;;;;;;5092466;28;20272;-87
2022/12/21 12:51:51;;;;;;;1.83;1.00;;;;;;;;;;5072834;28;20203;-87
2022/12/21 12:54:24;;;;;;;2.40;1.20;;;;;;;;;;5073842;28;20202;-89
2022/12/21 12:56:54;;;;;;;3.17;1.50;;;;;;;;;;5066253;28;20222;-91
2022/12/21 12:59:26;;;;;;;2.40;1.30;;;;;;;;;;5072968;28;20194;-88
2022/12/21 13:01:56;;;;;;;3.17;1.23;;;;;;;;;;5072799;28;20195;-89
2022/12/21 13:04:33;;;;;;;3.17;1.27;;;;;;;;;;5062068;28;20202;-88
2022/12/21 13:07:03;;;;;;;1.85;1.30;;;;;;;;;;5070567;28;20198;-88
2022/12/21 13:09:35;;;;;;;1.33;1.20;;;;;;;;;;5073421;28;20272;-88
2022/12/21 13:12:07;;;;;;;1.80;1.07;;;;;;;;;;5069248;28;20230;-88
2022/12/21 13:14:38;;;;;;;2.90;0.97;;;;;;;;;;5058771;28;20222;-89
2022/12/21 13:17:09;;;;;;;1.33;1.13;;;;;;;;;;5070101;28;20223;-87
2022/12/21 13:19:37;;;;;;;3.30;1.20;;;;;;;;;;5068137;28;20229;-88
2022/12/21 13:22:05;;;;;;;2.10;0.97;;;;;;;;;;5072402;28;20281;-88
2022/12/21 13:24:35;;;;;;;1.87;1.10;;;;;;;;;;5072911;28;20201;-88
2022/12/21 13:27:06;;;;;;;1.93;1.07;;;;;;;;;;5072433;28;20199;-89
2022/12/21 13:29:36;;;;;;;2.23;0.80;;;;;;;;;;5069798;28;20231;-87
2022/12/21 13:32:10;;;;;;;1.53;1.00;;;;;;;;;;5066689;28;20194;-88
2022/12/21 13:34:40;;;;;;;2.10;1.10;;;;;;;;;;5073903;28;20206;-88
2022/12/21 13:37:25;;;;;;;3.23;1.20;;;;;;;;;;5070120;28;20290;-87
2022/12/21 13:39:59;;;;;;;2.07;1.20;;;;;;;;;;5066490;28;20200;-87
2022/12/21 13:42:30;;;;;;;2.87;1.23;;;;;;;;;;5071397;28;20209;-87
2022/12/21 13:44:58;;;;;;;3.90;2.10;;;;;;;;;;5071696;28;20194;-86
2022/12/21 13:47:28;;;;;;;4.40;1.70;;;;;;;;;;5054300;28;20278;-87
2022/12/21 13:50:02;;;;;;;4.27;1.90;;;;;;;;;;5054194;28;20230;-87
2022/12/21 13:52:43;;;;;;;2.77;1.30;;;;;;;;;;5069396;28;20214;-86
2022/12/21 13:55:17;;;;;;;4.23;2.10;;;;;;;;;;5054274;28;20199;-87
2022/12/21 13:57:49;;;;;;;5.70;2.07;;;;;;;;;;5059008;28;20282;-87
2022/12/21 14:00:22;;;;;;;1.90;1.27;;;;;;;;;;5071923;28;20208;-87
2022/12/21 14:02:56;;;;;;;3.87;1.20;;;;;;;;;;5074149;28;20218;-87
2022/12/21 14:05:24;;;;;;;3.23;1.53;;;;;;;;;;5073707;28;20198;-87
2022/12/21 14:08:04;;;;;;;1.83;1.10;;;;;;;;;;5073622;28;20194;-86
2022/12/21 14:10:33;;;;;;;4.10;1.60;;;;;;;;;;5057798;28;20199;-87
2022/12/21 14:13:22;;;;;;;2.33;1.40;;;;;;;;;;5070752;28;20285;-86
2022/12/21 14:15:57;;;;;;;3.27;1.10;;;;;;;;;;5054186;28;20198;-87
2022/12/21 14:18:31;;;;;;;1.83;1.30;;;;;;;;;;5057928;28;20199;-87
2022/12/21 14:21:02;;;;;;;3.33;1.13;;;;;;;;;;5073013;28;20199;-86
2022/12/21 14:23:30;;;;;;;1.97;1.17;;;;;;;;;;5072634;28;20217;-86
2022/12/21 14:25:58;;;;;;;3.07;1.10;;;;;;;;;;5069596;28;20216;-86
2022/12/21 14:28:27;;;;;;;1.90;1.30;;;;;;;;;;5053504;28;20227;-87
2022/12/21 14:30:55;;;;;;;3.30;1.60;;;;;;;;;;5056072;28;20218;-86
2022/12/21 14:33:24;;;;;;;4.20;1.47;;;;;;;;;;5062780;28;20195;-89
2022/12/21 14:36:10;;;;;;;3.80;1.30;;;;;;;;;;5067948;28;20199;-92
2022/12/21 14:38:39;;;;;;;4.33;1.20;;;;;;;;;;5070484;28;20201;-93
2022/12/21 14:41:18;;;;;;;3.50;1.37;;;;;;;;;;5072075;28;20195;-96
2022/12/21 14:44:04;;;;;;;3.90;1.40;;;;;;;;;;5068847;28;20281;-88
2022/12/21 14:46:31;;;;;;;4.20;1.20;;;;;;;;;;5067569;28;20203;-89
2022/12/21 14:49:06;;;;;;;1.63;1.20;;;;;;;;;;5073158;28;20258;-90
2022/12/21 14:51:51;;;;;;;1.60;1.10;;;;;;;;;;5063587;28;20259;-89
2022/12/21 14:54:37;;;;;;;4.00;1.37;;;;;;;;;;5076830;28;20264;-89
2022/12/21 14:57:25;;;;;;;1.30;0.90;;;;;;;;;;5072334;28;20215;-88
2022/12/21 14:59:58;;;;;;;5.00;1.10;;;;;;;;;;5072534;28;20194;-89
2022/12/21 15:02:28;;;;;;;1.97;1.00;;;;;;;;;;5073347;28;20199;-89
2022/12/21 15:04:57;;;;;;;3.37;0.90;;;;;;;;;;5069712;28;20198;-90